Time;durP1;ratioP1;P1;durP2;ratioP2;P2;SDS_P1;SDS_P2;PMS_P1;PMS_P2;Temp;Humidity;BMP_temperature;BMP_pressure;BME280_temperature;BME280_humidity;BME280_pressure;Samples;Min_cycle;Max_cycle;Signal;HPM_P1;HPM_P2
2021/01/22 00:00:50;;;;;;;;;;;6.40;99.90;;;;;;5097342;28;20286;-71
2021/01/22 00:03:16;;;;;;;;;;;6.40;99.90;;;;;;5096166;28;19904;-71
2021/01/22 00:05:41;;;;;;;;;;;6.20;99.90;;;;;;5097313;28;19951;-71
2021/01/22 00:08:07;;;;;;;;;;;6.50;99.90;;;;;;5097391;28;20435;-71
2021/01/22 00:10:33;;;;;;;;;;;6.30;99.90;;;;;;5097469;28;19908;-71
2021/01/22 00:12:58;;;;;;;;;;;6.30;99.90;;;;;;5097506;28;19908;-71
2021/01/22 00:15:24;;;;;;;;;;;6.20;99.90;;;;;;5097381;28;19911;-71
2021/01/22 00:17:50;;;;;;;;;;;6.30;99.90;;;;;;5097440;28;19953;-71
2021/01/22 00:20:15;;;;;;;;;;;6.60;99.90;;;;;;5097162;28;20473;-71
2021/01/22 00:22:41;;;;;;;;;;;6.30;99.90;;;;;;5097016;28;20371;-71
2021/01/22 00:25:07;;;;;;;;;;;6.40;99.90;;;;;;5097419;28;19904;-71
2021/01/22 00:27:32;;;;;;;;;;;6.40;99.90;;;;;;5097533;28;19904;-71
2021/01/22 00:29:58;;;;;;;;;;;6.50;99.90;;;;;;5097338;28;19904;-71
2021/01/22 00:32:24;;;;;;;;;;;6.30;99.90;;;;;;5097143;28;19995;-71
2021/01/22 00:34:50;;;;;;;;;;;6.00;99.90;;;;;;5096876;28;19920;-71
2021/01/22 00:37:15;;;;;;;;;;;6.20;99.90;;;;;;5097224;28;19911;-71
2021/01/22 00:39:41;;;;;;;;;;;6.20;99.90;;;;;;5096806;28;19904;-71
2021/01/22 00:42:07;;;;;;;;;;;6.30;99.90;;;;;;5097127;28;20451;-71
2021/01/22 00:44:32;;;;;;;;;;;6.10;99.90;;;;;;5097025;28;20288;-71
2021/01/22 00:46:58;;;;;;;;;;;6.10;99.90;;;;;;5097200;28;20851;-71
2021/01/22 00:49:24;;;;;;;;;;;6.50;99.90;;;;;;5096736;28;19911;-71
2021/01/22 00:51:49;;;;;;;;;;;6.20;99.90;;;;;;5099685;28;19912;-71
2021/01/22 00:54:15;;;;;;;;;;;6.20;99.90;;;;;;5100699;28;19951;-71
2021/01/22 00:56:40;;;;;;;;;;;6.10;99.90;;;;;;5101164;28;19904;-71
2021/01/22 00:59:06;;;;;;;;;;;6.10;99.90;;;;;;5100937;28;20423;-71
2021/01/22 01:01:32;;;;;;;;;;;6.20;99.90;;;;;;5100803;28;19912;-71
2021/01/22 01:03:58;;;;;;;;;;;6.20;99.90;;;;;;5100760;28;20003;-71
2021/01/22 01:06:23;;;;;;;;;;;6.10;99.90;;;;;;5100938;28;20448;-71
2021/01/22 01:08:49;;;;;;;;;;;6.10;99.90;;;;;;5100617;28;19912;-70
2021/01/22 01:11:15;;;;;;;;;;;6.10;99.90;;;;;;5100784;28;20014;-71
2021/01/22 01:13:40;;;;;;;;;;;6.10;99.90;;;;;;5100480;28;19998;-71
2021/01/22 01:16:06;;;;;;;;;;;6.20;99.90;;;;;;5100799;28;19904;-70
2021/01/22 01:18:32;;;;;;;;;;;6.20;99.90;;;;;;5099166;28;19904;-71
2021/01/22 01:20:57;;;;;;;;;;;6.10;99.90;;;;;;5100772;28;19915;-71
2021/01/22 01:23:29;;;;;;;;;;;6.10;99.90;;;;;;5100393;28;19904;-71
2021/01/22 01:25:55;;;;;;;;;;;6.10;99.90;;;;;;5100800;28;19904;-71
2021/01/22 01:28:20;;;;;;;;;;;6.00;99.90;;;;;;5100301;28;20385;-71
2021/01/22 01:30:46;;;;;;;;;;;6.20;99.90;;;;;;5100505;28;20386;-70
2021/01/22 01:33:12;;;;;;;;;;;6.50;99.90;;;;;;5100317;28;19904;-71
2021/01/22 01:35:37;;;;;;;;;;;6.10;99.90;;;;;;5100299;28;19904;-71
2021/01/22 01:38:03;;;;;;;;;;;6.20;99.90;;;;;;5100011;28;19904;-71
2021/01/22 01:40:29;;;;;;;;;;;6.20;99.90;;;;;;5100402;28;19962;-71
2021/01/22 01:42:54;;;;;;;;;;;6.10;99.90;;;;;;5100318;28;19904;-71
2021/01/22 01:45:20;;;;;;;;;;;6.10;99.90;;;;;;5100117;28;19904;-71
2021/01/22 01:47:46;;;;;;;;;;;6.10;99.90;;;;;;5099923;28;20049;-71
2021/01/22 01:50:12;;;;;;;;;;;6.20;99.90;;;;;;5099970;28;19907;-71
2021/01/22 01:52:38;;;;;;;;;;;6.10;99.90;;;;;;5099695;28;19972;-71
2021/01/22 01:55:05;;;;;;;;;;;6.20;99.90;;;;;;5100045;28;20482;-71
2021/01/22 01:57:30;;;;;;;;;;;5.80;99.90;;;;;;5099735;28;19927;-71
2021/01/22 01:59:58;;;;;;;;;;;6.10;99.90;;;;;;5099924;28;20379;-71
2021/01/22 02:02:24;;;;;;;;;;;6.00;99.90;;;;;;5098214;28;19904;-71
2021/01/22 02:04:50;;;;;;;;;;;6.00;99.90;;;;;;5099659;28;19919;-71
2021/01/22 02:07:15;;;;;;;;;;;6.20;99.90;;;;;;5099569;28;19904;-71
2021/01/22 02:09:41;;;;;;;;;;;6.10;99.90;;;;;;5099668;28;19908;-71
2021/01/22 02:12:07;;;;;;;;;;;6.00;99.90;;;;;;5099356;28;19904;-71
2021/01/22 02:14:34;;;;;;;;;;;6.00;99.90;;;;;;5099692;28;19926;-71
2021/01/22 02:17:00;;;;;;;;;;;6.00;99.90;;;;;;5099419;28;19904;-71
2021/01/22 02:19:44;;;;;;;;;;;6.10;99.90;;;;;;5099576;28;19911;-71
2021/01/22 02:22:10;;;;;;;;;;;5.80;99.90;;;;;;5099132;28;19957;-71
2021/01/22 02:24:36;;;;;;;;;;;6.20;99.90;;;;;;5099190;28;19904;-71
2021/01/22 02:27:04;;;;;;;;;;;6.00;99.90;;;;;;5099442;28;19911;-71
2021/01/22 02:29:31;;;;;;;;;;;6.20;99.90;;;;;;5099418;28;19908;-71
2021/01/22 02:32:00;;;;;;;;;;;6.10;99.90;;;;;;5099269;28;19911;-71
2021/01/22 02:34:27;;;;;;;;;;;6.00;99.90;;;;;;5099556;28;19927;-70
2021/01/22 02:36:56;;;;;;;;;;;5.90;99.90;;;;;;5099034;28;19951;-71
2021/01/22 02:39:24;;;;;;;;;;;5.90;99.90;;;;;;5098919;28;19988;-71
2021/01/22 02:41:53;;;;;;;;;;;6.00;99.90;;;;;;5098850;28;20054;-71
2021/01/22 02:44:19;;;;;;;;;;;5.90;99.90;;;;;;5098978;28;20180;-71
2021/01/22 02:46:45;;;;;;;;;;;5.90;99.90;;;;;;5098811;28;19904;-71
2021/01/22 02:49:10;;;;;;;;;;;5.80;99.90;;;;;;5098714;28;19908;-71
2021/01/22 02:51:36;;;;;;;;;;;6.30;99.90;;;;;;5098720;28;19903;-71
2021/01/22 02:54:01;;;;;;;;;;;5.70;99.90;;;;;;5098473;28;19949;-71
2021/01/22 02:56:30;;;;;;;;;;;5.70;99.90;;;;;;5098885;28;19904;-71
2021/01/22 02:59:08;;;;;;;;;;;5.60;99.90;;;;;;5098851;28;19908;-71
2021/01/22 03:01:39;;;;;;;;;;;5.50;99.90;;;;;;5098428;28;20329;-71
2021/01/22 03:04:09;;;;;;;;;;;5.50;99.90;;;;;;5096905;28;19954;-71
2021/01/22 03:06:40;;;;;;;;;;;5.20;99.90;;;;;;5098769;28;19908;-71
2021/01/22 03:09:06;;;;;;;;;;;5.10;99.90;;;;;;5098181;28;19903;-71
2021/01/22 03:11:34;;;;;;;;;;;5.00;99.90;;;;;;5098378;28;19911;-71
2021/01/22 03:14:01;;;;;;;;;;;5.00;99.90;;;;;;5097994;28;19904;-71
2021/01/22 03:16:27;;;;;;;;;;;4.80;99.90;;;;;;5098634;28;19904;-71
2021/01/22 03:18:56;;;;;;;;;;;4.80;99.90;;;;;;5096804;28;19904;-71
2021/01/22 03:21:22;;;;;;;;;;;4.60;99.90;;;;;;5096873;28;20412;-71
2021/01/22 03:23:47;;;;;;;;;;;4.60;99.90;;;;;;5097942;28;19904;-71
2021/01/22 03:26:13;;;;;;;;;;;4.80;99.90;;;;;;5098224;28;19946;-71
2021/01/22 03:28:38;;;;;;;;;;;4.40;99.90;;;;;;5097925;28;19904;-71
2021/01/22 03:31:04;;;;;;;;;;;4.60;99.90;;;;;;5098254;28;19911;-71
2021/01/22 03:33:30;;;;;;;;;;;4.70;99.90;;;;;;5097841;28;19904;-71
2021/01/22 03:35:55;;;;;;;;;;;4.60;99.90;;;;;;5098112;28;19944;-71
2021/01/22 03:38:21;;;;;;;;;;;4.80;99.90;;;;;;5097670;28;19904;-71
2021/01/22 03:40:47;;;;;;;;;;;4.70;99.90;;;;;;5097932;28;19908;-71
2021/01/22 03:43:12;;;;;;;;;;;4.70;99.90;;;;;;5097744;28;19904;-71
2021/01/22 03:45:38;;;;;;;;;;;4.80;99.90;;;;;;5097888;28;19919;-71
2021/01/22 03:48:04;;;;;;;;;;;4.70;99.90;;;;;;5097576;28;19998;-71
2021/01/22 03:50:29;;;;;;;;;;;4.70;99.90;;;;;;5097647;28;19912;-71
2021/01/22 03:52:55;;;;;;;;;;;4.90;99.90;;;;;;5097645;28;20333;-71
2021/01/22 03:55:21;;;;;;;;;;;4.80;99.90;;;;;;5097653;28;19920;-71
2021/01/22 03:57:47;;;;;;;;;;;4.80;99.90;;;;;;5097569;28;20428;-71
2021/01/22 04:00:13;;;;;;;;;;;4.80;99.90;;;;;;5097532;28;20389;-71
2021/01/22 04:02:38;;;;;;;;;;;5.10;99.90;;;;;;5097451;28;20451;-71
2021/01/22 04:05:05;;;;;;;;;;;5.00;99.90;;;;;;5097365;28;19904;-71
2021/01/22 04:07:30;;;;;;;;;;;4.70;99.90;;;;;;5097102;28;19915;-71
2021/01/22 04:09:56;;;;;;;;;;;4.70;99.90;;;;;;5097786;28;19904;-71
2021/01/22 04:12:21;;;;;;;;;;;4.60;99.90;;;;;;5097227;28;19912;-71
2021/01/22 04:14:47;;;;;;;;;;;4.90;99.90;;;;;;5097476;28;19985;-71
2021/01/22 04:17:13;;;;;;;;;;;4.60;99.90;;;;;;5097357;28;19904;-71
2021/01/22 04:19:38;;;;;;;;;;;5.00;99.90;;;;;;5095972;28;19911;-71
2021/01/22 04:22:04;;;;;;;;;;;4.70;99.90;;;;;;5097074;28;19922;-71
2021/01/22 04:24:30;;;;;;;;;;;4.30;99.90;;;;;;5096985;28;19999;-71
2021/01/22 04:26:55;;;;;;;;;;;4.60;99.90;;;;;;5096670;28;19939;-71
2021/01/22 04:29:21;;;;;;;;;;;4.60;99.90;;;;;;5097234;28;19971;-71
2021/01/22 04:31:46;;;;;;;;;;;4.40;99.90;;;;;;5097178;28;19911;-71
2021/01/22 04:34:12;;;;;;;;;;;4.20;99.90;;;;;;5097189;28;19908;-70
2021/01/22 04:36:38;;;;;;;;;;;4.70;99.90;;;;;;5097117;28;19926;-70
2021/01/22 04:39:04;;;;;;;;;;;4.60;99.90;;;;;;5097037;28;19904;-71
2021/01/22 04:41:30;;;;;;;;;;;4.70;99.90;;;;;;5097224;28;19918;-71
2021/01/22 04:43:56;;;;;;;;;;;4.50;99.90;;;;;;5097217;28;20362;-71
2021/01/22 04:46:21;;;;;;;;;;;4.70;99.90;;;;;;5097009;28;19904;-71
2021/01/22 04:48:48;;;;;;;;;;;4.60;99.90;;;;;;5096719;28;19916;-71
2021/01/22 04:51:15;;;;;;;;;;;4.60;99.90;;;;;;5097191;28;19915;-71
2021/01/22 04:53:42;;;;;;;;;;;4.50;99.90;;;;;;5096732;28;19927;-71
2021/01/22 04:56:08;;;;;;;;;;;4.60;99.90;;;;;;5096958;28;19953;-71
2021/01/22 04:58:38;;;;;;;;;;;5.00;99.90;;;;;;5097053;28;19964;-71
2021/01/22 05:01:04;;;;;;;;;;;4.50;99.90;;;;;;5096800;28;19908;-71
2021/01/22 05:03:30;;;;;;;;;;;4.30;99.90;;;;;;5096734;28;19915;-71
2021/01/22 05:05:59;;;;;;;;;;;4.40;99.90;;;;;;5096903;28;19911;-71
2021/01/22 05:08:25;;;;;;;;;;;4.50;99.90;;;;;;5096812;28;19918;-71
2021/01/22 05:10:51;;;;;;;;;;;4.50;99.90;;;;;;5096757;28;19904;-73
2021/01/22 05:13:16;;;;;;;;;;;4.60;99.90;;;;;;5096704;28;19910;-71
2021/01/22 05:15:42;;;;;;;;;;;4.50;99.90;;;;;;5096805;28;19908;-71
2021/01/22 05:18:10;;;;;;;;;;;4.40;99.90;;;;;;5096819;28;19904;-71
2021/01/22 05:20:36;;;;;;;;;;;4.50;99.90;;;;;;5095337;28;20003;-71
2021/01/22 05:23:03;;;;;;;;;;;4.40;99.90;;;;;;5096591;28;19939;-71
2021/01/22 05:25:28;;;;;;;;;;;4.50;99.90;;;;;;5096737;28;19904;-71
2021/01/22 05:27:55;;;;;;;;;;;4.50;99.90;;;;;;5096906;28;19954;-71
2021/01/22 05:30:22;;;;;;;;;;;4.30;99.90;;;;;;5096650;28;19904;-71
2021/01/22 05:32:48;;;;;;;;;;;4.40;99.90;;;;;;5096608;28;19911;-71
2021/01/22 05:35:26;;;;;;;;;;;4.30;99.90;;;;;;5096456;28;19904;-71
2021/01/22 05:37:52;;;;;;;;;;;4.20;99.90;;;;;;5098762;28;19935;-71
2021/01/22 05:40:18;;;;;;;;;;;4.30;99.90;;;;;;5100031;28;19969;-71
2021/01/22 05:42:51;;;;;;;;;;;4.30;99.90;;;;;;5098821;28;19904;-71
2021/01/22 05:45:19;;;;;;;;;;;4.40;99.90;;;;;;5100290;28;19904;-70
2021/01/22 05:47:44;;;;;;;;;;;4.30;99.90;;;;;;5100008;28;20002;-70
2021/01/22 05:50:10;;;;;;;;;;;4.30;99.90;;;;;;5099962;28;19943;-71
2021/01/22 05:52:36;;;;;;;;;;;4.40;99.90;;;;;;5099888;28;19904;-71
2021/01/22 05:55:18;;;;;;;;;;;4.40;99.90;;;;;;5100068;28;19904;-71
2021/01/22 05:57:43;;;;;;;;;;;4.50;99.90;;;;;;5099836;28;19955;-71
2021/01/22 06:00:10;;;;;;;;;;;4.40;99.90;;;;;;5099867;28;20367;-71
2021/01/22 06:02:35;;;;;;;;;;;4.30;99.90;;;;;;5099604;28;20268;-71
2021/01/22 06:05:08;;;;;;;;;;;4.40;99.90;;;;;;5099651;28;19911;-71
2021/01/22 06:07:34;;;;;;;;;;;4.20;99.90;;;;;;5099378;28;19911;-71
2021/01/22 06:10:11;;;;;;;;;;;4.30;99.90;;;;;;5089715;28;19912;-71
2021/01/22 06:12:37;;;;;;;;;;;4.30;99.90;;;;;;5093377;28;19957;-71
2021/01/22 06:15:04;;;;;;;;;;;4.50;99.90;;;;;;5099497;28;19904;-71
2021/01/22 06:17:30;;;;;;;;;;;4.40;99.90;;;;;;5097593;28;19907;-71
2021/01/22 06:19:55;;;;;;;;;;;4.40;99.90;;;;;;5099556;28;20007;-71
2021/01/22 06:22:27;;;;;;;;;;;4.30;99.90;;;;;;5098844;28;19918;-71
2021/01/22 06:24:55;;;;;;;;;;;4.20;99.90;;;;;;5093861;28;19912;-71
2021/01/22 06:27:21;;;;;;;;;;;4.30;99.90;;;;;;5098835;28;19904;-71
2021/01/22 06:29:47;;;;;;;;;;;4.00;99.90;;;;;;5099274;28;20391;-70
2021/01/22 06:32:13;;;;;;;;;;;4.10;99.90;;;;;;5098313;28;19904;-69
2021/01/22 06:34:39;;;;;;;;;;;4.00;99.90;;;;;;5097644;28;19904;-73
2021/01/22 06:37:06;;;;;;;;;;;4.10;99.90;;;;;;5098021;28;19904;-73
2021/01/22 06:39:32;;;;;;;;;;;4.40;99.90;;;;;;5099137;28;19943;-73
2021/01/22 06:42:01;;;;;;;;;;;4.20;99.90;;;;;;5099081;28;20429;-73
2021/01/22 06:44:26;;;;;;;;;;;4.00;99.90;;;;;;5097731;28;19904;-73
2021/01/22 06:46:52;;;;;;;;;;;4.20;99.90;;;;;;5098771;28;19904;-73
2021/01/22 06:49:29;;;;;;;;;;;4.00;99.90;;;;;;5098051;28;20237;-73
2021/01/22 06:52:08;;;;;;;;;;;4.10;99.90;;;;;;5099119;28;19912;-73
2021/01/22 06:54:34;;;;;;;;;;;3.80;99.90;;;;;;5098620;28;19990;-73
2021/01/22 06:57:02;;;;;;;;;;;4.00;99.90;;;;;;5098866;28;19939;-73
2021/01/22 06:59:35;;;;;;;;;;;4.10;99.90;;;;;;5097380;28;19995;-73
2021/01/22 07:02:00;;;;;;;;;;;4.20;99.90;;;;;;5098496;28;19908;-73
2021/01/22 07:04:46;;;;;;;;;;;4.30;99.90;;;;;;5098460;28;20295;-73
2021/01/22 07:07:12;;;;;;;;;;;4.00;99.90;;;;;;5097925;28;19904;-73
2021/01/22 07:09:41;;;;;;;;;;;3.80;99.90;;;;;;5097358;28;19912;-72
2021/01/22 07:12:07;;;;;;;;;;;3.90;99.90;;;;;;5098284;28;20379;-73
2021/01/22 07:14:37;;;;;;;;;;;3.60;99.90;;;;;;5097120;28;19962;-73
2021/01/22 07:17:13;;;;;;;;;;;3.80;99.90;;;;;;5098363;28;19911;-73
2021/01/22 07:19:40;;;;;;;;;;;3.60;99.90;;;;;;5096789;28;19908;-73
2021/01/22 07:22:06;;;;;;;;;;;3.40;99.90;;;;;;5097686;28;20003;-73
2021/01/22 07:24:33;;;;;;;;;;;3.40;99.90;;;;;;5098601;28;19903;-73
2021/01/22 07:27:00;;;;;;;;;;;3.10;99.90;;;;;;5098218;28;20749;-73
2021/01/22 07:29:29;;;;;;;;;;;3.10;99.90;;;;;;5098320;28;19904;-73
2021/01/22 07:32:00;;;;;;;;;;;3.30;99.90;;;;;;5098165;28;19904;-73
2021/01/22 07:34:45;;;;;;;;;;;3.30;99.90;;;;;;5098198;28;19953;-73
2021/01/22 07:37:15;;;;;;;;;;;3.20;99.90;;;;;;5096460;28;19904;-73
2021/01/22 07:39:41;;;;;;;;;;;3.50;99.90;;;;;;5097895;28;19911;-73
2021/01/22 07:42:09;;;;;;;;;;;3.40;99.90;;;;;;5097738;28;19912;-73
2021/01/22 07:44:36;;;;;;;;;;;3.60;99.90;;;;;;5097767;28;19911;-73
2021/01/22 07:47:02;;;;;;;;;;;3.50;99.90;;;;;;5097618;28;19911;-73
2021/01/22 07:49:28;;;;;;;;;;;3.20;99.90;;;;;;5097712;28;19904;-73
2021/01/22 07:51:54;;;;;;;;;;;3.30;99.90;;;;;;5097936;28;19910;-72
2021/01/22 07:54:19;;;;;;;;;;;3.10;99.90;;;;;;5097320;28;20420;-72
2021/01/22 07:56:47;;;;;;;;;;;2.90;99.90;;;;;;5097670;28;20006;-72
2021/01/22 07:59:13;;;;;;;;;;;2.90;99.90;;;;;;5097417;28;19926;-73
2021/01/22 08:01:40;;;;;;;;;;;2.80;99.90;;;;;;5097482;28;19908;-72
2021/01/22 08:04:06;;;;;;;;;;;2.70;99.90;;;;;;5097245;28;19926;-73
2021/01/22 08:06:48;;;;;;;;;;;2.70;99.90;;;;;;5097543;28;21032;-73
2021/01/22 08:09:16;;;;;;;;;;;2.60;99.90;;;;;;5097090;28;19926;-72
2021/01/22 08:11:43;;;;;;;;;;;3.00;99.90;;;;;;5095956;28;20398;-72
2021/01/22 08:14:08;;;;;;;;;;;2.70;99.90;;;;;;5097377;28;20360;-72
2021/01/22 08:16:34;;;;;;;;;;;2.60;99.90;;;;;;5097333;28;19904;-72
2021/01/22 08:19:00;;;;;;;;;;;2.50;99.90;;;;;;5097189;28;19908;-73
2021/01/22 08:21:29;;;;;;;;;;;2.80;99.90;;;;;;5097437;28;19908;-73
2021/01/22 08:23:58;;;;;;;;;;;2.70;99.90;;;;;;5097151;28;19904;-72
2021/01/22 08:26:26;;;;;;;;;;;2.70;99.90;;;;;;5097429;28;19946;-73
2021/01/22 08:28:54;;;;;;;;;;;3.10;99.90;;;;;;5095777;28;19904;-72
2021/01/22 08:31:20;;;;;;;;;;;2.50;99.90;;;;;;5095819;28;19916;-73
2021/01/22 08:33:46;;;;;;;;;;;2.60;99.90;;;;;;5096823;28;20268;-72
2021/01/22 08:36:12;;;;;;;;;;;3.10;99.90;;;;;;5097210;28;19912;-72
2021/01/22 08:38:38;;;;;;;;;;;2.90;99.90;;;;;;5096690;28;20317;-73
2021/01/22 08:41:04;;;;;;;;;;;3.10;99.90;;;;;;5096942;28;20024;-73
2021/01/22 08:43:29;;;;;;;;;;;3.60;99.90;;;;;;5096864;28;19915;-73
2021/01/22 08:46:10;;;;;;;;;;;4.40;99.90;;;;;;5097204;28;19904;-73
2021/01/22 08:48:39;;;;;;;;;;;5.70;99.90;;;;;;5096743;28;20050;-73
2021/01/22 08:51:05;;;;;;;;;;;6.90;99.90;;;;;;5096927;28;19904;-73
2021/01/22 08:53:31;;;;;;;;;;;8.20;99.90;;;;;;5096627;28;19930;-72
2021/01/22 08:56:10;;;;;;;;;;;8.90;99.90;;;;;;5097130;28;19904;-72
2021/01/22 08:58:55;;;;;;;;;;;10.30;99.90;;;;;;5096866;28;19904;-73
2021/01/22 09:01:21;;;;;;;;;;;11.60;99.90;;;;;;5096651;28;19908;-73
2021/01/22 09:03:46;;;;;;;;;;;12.20;99.90;;;;;;5097061;28;20314;-72
2021/01/22 09:06:12;;;;;;;;;;;12.20;99.90;;;;;;5096640;28;20428;-72
2021/01/22 09:08:53;;;;;;;;;;;11.50;99.90;;;;;;5096646;28;20363;-72
2021/01/22 09:11:34;;;;;;;;;;;10.30;99.90;;;;;;5096867;28;19915;-72
2021/01/22 09:13:59;;;;;;;;;;;9.20;99.90;;;;;;5097150;28;19904;-72
2021/01/22 09:16:25;;;;;;;;;;;9.30;99.90;;;;;;5100943;28;19953;-72
2021/01/22 09:18:57;;;;;;;;;;;9.80;99.90;;;;;;5100408;28;20060;-72
2021/01/22 09:21:23;;;;;;;;;;;10.70;99.90;;;;;;5100963;28;19908;-73
2021/01/22 09:23:48;;;;;;;;;;;11.40;99.90;;;;;;5100203;28;19911;-72
2021/01/22 09:26:14;;;;;;;;;;;11.60;99.90;;;;;;5099161;28;19904;-72
2021/01/22 09:28:40;;;;;;;;;;;11.50;99.90;;;;;;5100352;28;19943;-72
2021/01/22 09:31:05;;;;;;;;;;;11.40;99.90;;;;;;5100527;28;19904;-73
2021/01/22 09:33:31;;;;;;;;;;;11.30;99.90;;;;;;5100108;28;19908;-73
2021/01/22 09:35:57;;;;;;;;;;;11.80;99.90;;;;;;5100580;28;19987;-72
2021/01/22 09:38:24;;;;;;;;;;;12.40;99.90;;;;;;5099876;28;19904;-72
2021/01/22 09:40:50;;;;;;;;;;;13.00;99.90;;;;;;5100126;28;19912;-73
2021/01/22 09:43:17;;;;;;;;;;;13.10;99.90;;;;;;5100082;28;19912;-72
2021/01/22 09:45:43;;;;;;;;;;;13.10;99.90;;;;;;5100001;28;19904;-73
2021/01/22 09:48:09;;;;;;;;;;;13.20;99.90;;;;;;5098483;28;19916;-72
2021/01/22 09:50:35;;;;;;;;;;;13.70;99.90;;;;;;5099916;28;19916;-73
2021/01/22 09:53:00;;;;;;;;;;;13.70;99.90;;;;;;5099612;28;19922;-73
2021/01/22 09:55:26;;;;;;;;;;;13.40;99.90;;;;;;5100117;28;19910;-73
2021/01/22 09:57:52;;;;;;;;;;;13.10;99.90;;;;;;5099678;28;19904;-72
2021/01/22 10:00:17;;;;;;;;;;;12.60;99.90;;;;;;5099775;28;19908;-72
2021/01/22 10:02:43;;;;;;;;;;;12.30;99.90;;;;;;5099668;28;19926;-72
2021/01/22 10:05:10;;;;;;;;;;;11.90;99.90;;;;;;5098193;28;20076;-72
2021/01/22 10:07:35;;;;;;;;;;;11.80;99.90;;;;;;5099396;28;20405;-72
2021/01/22 10:10:01;;;;;;;;;;;11.30;99.90;;;;;;5099622;28;19903;-72
2021/01/22 10:12:26;;;;;;;;;;;11.60;99.90;;;;;;5098208;28;19957;-72
2021/01/22 10:14:52;;;;;;;;;;;12.50;99.90;;;;;;5099907;28;20363;-72
2021/01/22 10:17:19;;;;;;;;;;;12.70;99.90;;;;;;5099386;28;20409;-72
2021/01/22 10:19:44;;;;;;;;;;;13.10;99.90;;;;;;5099464;28;19910;-72
2021/01/22 10:22:10;;;;;;;;;;;12.80;99.90;;;;;;5098873;28;19916;-72
2021/01/22 10:24:35;;;;;;;;;;;12.50;99.90;;;;;;5096912;28;19904;-72
2021/01/22 10:27:01;;;;;;;;;;;12.00;99.90;;;;;;5099236;28;19991;-72
2021/01/22 10:29:27;;;;;;;;;;;11.40;99.90;;;;;;5099555;28;19904;-72
2021/01/22 10:31:53;;;;;;;;;;;10.90;99.90;;;;;;5099304;28;20002;-72
2021/01/22 10:34:18;;;;;;;;;;;10.80;99.90;;;;;;5099100;28;19954;-72
2021/01/22 10:36:44;;;;;;;;;;;11.10;99.90;;;;;;5099032;28;19904;-72
2021/01/22 10:39:10;;;;;;;;;;;11.60;99.90;;;;;;5098912;28;19908;-72
2021/01/22 10:41:36;;;;;;;;;;;12.10;99.90;;;;;;5098942;28;20329;-72
2021/01/22 10:44:02;;;;;;;;;;;12.60;99.90;;;;;;5097674;28;20009;-72
2021/01/22 10:46:28;;;;;;;;;;;12.70;99.90;;;;;;5098827;28;19904;-72
2021/01/22 10:48:54;;;;;;;;;;;12.40;99.90;;;;;;5097493;28;19998;-72
2021/01/22 10:51:20;;;;;;;;;;;12.00;99.90;;;;;;5098750;28;19908;-72
2021/01/22 10:53:46;;;;;;;;;;;11.90;99.90;;;;;;5098604;28;19957;-72
2021/01/22 10:56:11;;;;;;;;;;;11.90;99.90;;;;;;5098657;28;19931;-72
2021/01/22 10:58:40;;;;;;;;;;;12.10;99.90;;;;;;5098729;28;19994;-72
2021/01/22 11:01:05;;;;;;;;;;;12.20;99.90;;;;;;5098401;28;20314;-72
2021/01/22 11:03:32;;;;;;;;;;;12.40;99.90;;;;;;5098529;28;19957;-72
2021/01/22 11:05:58;;;;;;;;;;;12.50;99.90;;;;;;5098616;28;19950;-72
2021/01/22 11:08:23;;;;;;;;;;;12.30;99.90;;;;;;5098562;28;19971;-72
2021/01/22 11:10:49;;;;;;;;;;;12.00;99.90;;;;;;5098216;28;19908;-72
2021/01/22 11:13:15;;;;;;;;;;;11.50;99.90;;;;;;5098375;28;20363;-72
2021/01/22 11:15:41;;;;;;;;;;;11.20;99.90;;;;;;5098271;28;19998;-72
2021/01/22 11:18:06;;;;;;;;;;;10.80;99.90;;;;;;5098288;28;19904;-72
2021/01/22 11:20:32;;;;;;;;;;;10.80;99.90;;;;;;5097924;28;19904;-72
2021/01/22 11:22:58;;;;;;;;;;;10.90;99.90;;;;;;5098182;28;20314;-72
2021/01/22 11:25:23;;;;;;;;;;;10.90;99.90;;;;;;5098207;28;19904;-72
2021/01/22 11:27:49;;;;;;;;;;;11.10;99.90;;;;;;5098179;28;19994;-72
2021/01/22 11:30:15;;;;;;;;;;;11.00;99.90;;;;;;5098046;28;19951;-72
2021/01/22 11:32:42;;;;;;;;;;;11.10;99.90;;;;;;5098051;28;19904;-72
2021/01/22 11:35:10;;;;;;;;;;;11.20;99.90;;;;;;5097469;28;19904;-72
2021/01/22 11:37:37;;;;;;;;;;;11.20;99.90;;;;;;5097832;28;19904;-72
2021/01/22 11:40:04;;;;;;;;;;;11.00;99.90;;;;;;5097837;28;19911;-72
2021/01/22 11:42:30;;;;;;;;;;;11.00;99.90;;;;;;5097879;28;20032;-73
2021/01/22 11:44:55;;;;;;;;;;;11.20;99.90;;;;;;5097868;28;19908;-72
2021/01/22 11:47:21;;;;;;;;;;;11.30;99.90;;;;;;5097527;28;19923;-72
2021/01/22 11:49:47;;;;;;;;;;;11.10;99.90;;;;;;5097534;28;19977;-72
2021/01/22 11:52:12;;;;;;;;;;;11.00;99.90;;;;;;5097444;28;19904;-72
2021/01/22 11:54:38;;;;;;;;;;;11.00;99.90;;;;;;5096283;28;19927;-73
2021/01/22 11:57:05;;;;;;;;;;;11.40;99.90;;;;;;5097719;28;19904;-72
2021/01/22 11:59:31;;;;;;;;;;;11.20;99.90;;;;;;5097470;28;20321;-72
2021/01/22 12:01:57;;;;;;;;;;;11.10;99.90;;;;;;5097721;28;19908;-72
2021/01/22 12:04:23;;;;;;;;;;;11.20;99.90;;;;;;5097272;28;19907;-72
2021/01/22 12:06:49;;;;;;;;;;;11.10;99.90;;;;;;5097238;28;20279;-72
2021/01/22 12:09:14;;;;;;;;;;;11.40;99.90;;;;;;5097211;28;19940;-72
2021/01/22 12:11:40;;;;;;;;;;;11.50;99.90;;;;;;5097382;28;19958;-72
2021/01/22 12:14:06;;;;;;;;;;;11.80;99.90;;;;;;5097430;28;19907;-73
2021/01/22 12:16:31;;;;;;;;;;;11.50;99.90;;;;;;5097366;28;19911;-72
2021/01/22 12:18:57;;;;;;;;;;;11.60;99.90;;;;;;5097280;28;19904;-72
2021/01/22 12:21:22;;;;;;;;;;;11.60;99.90;;;;;;5097380;28;19908;-72
2021/01/22 12:23:48;;;;;;;;;;;11.80;99.90;;;;;;5096932;28;19904;-72
2021/01/22 12:26:14;;;;;;;;;;;12.10;99.90;;;;;;5096005;28;19954;-72
2021/01/22 12:28:40;;;;;;;;;;;12.50;99.90;;;;;;5097181;28;19975;-72
2021/01/22 12:31:06;;;;;;;;;;;13.10;99.90;;;;;;5097220;28;20375;-72
2021/01/22 12:33:32;;;;;;;;;;;13.50;99.90;;;;;;5096942;28;19966;-72
2021/01/22 12:35:58;;;;;;;;;;;14.00;99.90;;;;;;5097233;28;19904;-72
2021/01/22 12:38:24;;;;;;;;;;;14.10;99.90;;;;;;5096954;28;19904;-72
2021/01/22 12:40:50;;;;;;;;;;;14.10;99.90;;;;;;5097200;28;19916;-72
2021/01/22 12:43:15;;;;;;;;;;;14.00;99.90;;;;;;5097144;28;19908;-72
2021/01/22 12:45:41;;;;;;;;;;;13.70;99.90;;;;;;5097057;28;19904;-72
2021/01/22 12:48:07;;;;;;;;;;;13.50;99.90;;;;;;5099966;28;20294;-72
2021/01/22 12:50:33;;;;;;;;;;;12.90;99.90;;;;;;5101049;28;19904;-72
2021/01/22 12:52:59;;;;;;;;;;;12.70;99.90;;;;;;5100794;28;19908;-72
2021/01/22 12:55:24;;;;;;;;;;;12.50;99.90;;;;;;5101234;28;20007;-72
2021/01/22 12:57:50;;;;;;;;;;;12.50;99.90;;;;;;5100923;28;19908;-72
2021/01/22 13:00:16;;;;;;;;;;;12.70;99.90;;;;;;5101037;28;19904;-72
2021/01/22 13:02:43;;;;;;;;;;;12.90;99.90;;;;;;5100694;28;19999;-72
2021/01/22 13:05:12;;;;;;;;;;;12.80;99.90;;;;;;5100923;28;19904;-72
2021/01/22 13:07:41;;;;;;;;;;;13.00;99.90;;;;;;5100403;28;19904;-72
2021/01/22 13:10:07;;;;;;;;;;;12.90;99.90;;;;;;5100643;28;19905;-73
2021/01/22 13:12:33;;;;;;;;;;;12.80;99.90;;;;;;5100546;28;19985;-72
2021/01/22 13:14:59;;;;;;;;;;;12.80;99.90;;;;;;5100769;28;19908;-72
2021/01/22 13:17:25;;;;;;;;;;;13.10;99.90;;;;;;5100807;28;19991;-72
2021/01/22 13:19:51;;;;;;;;;;;13.40;99.90;;;;;;5100534;28;20347;-72
2021/01/22 13:22:16;;;;;;;;;;;13.60;99.90;;;;;;5100109;28;20181;-72
2021/01/22 13:24:42;;;;;;;;;;;13.70;99.90;;;;;;5100570;28;20003;-72
2021/01/22 13:27:08;;;;;;;;;;;13.70;99.90;;;;;;5100412;28;19904;-72
2021/01/22 13:29:33;;;;;;;;;;;13.80;99.90;;;;;;5100477;28;19908;-72
2021/01/22 13:31:59;;;;;;;;;;;13.70;99.90;;;;;;5100316;28;19954;-72
2021/01/22 13:34:25;;;;;;;;;;;13.60;99.90;;;;;;5100298;28;19904;-72
2021/01/22 13:36:50;;;;;;;;;;;13.20;99.90;;;;;;5099920;28;20399;-72
2021/01/22 13:39:16;;;;;;;;;;;12.60;99.90;;;;;;5100257;28;19932;-72
2021/01/22 13:41:42;;;;;;;;;;;12.00;99.90;;;;;;5100090;28;19919;-72
2021/01/22 13:44:07;;;;;;;;;;;11.60;99.90;;;;;;5100114;28;19910;-72
2021/01/22 13:46:33;;;;;;;;;;;11.60;99.90;;;;;;5100002;28;19911;-72
2021/01/22 13:48:59;;;;;;;;;;;11.50;99.90;;;;;;5099793;28;19916;-73
2021/01/22 13:51:25;;;;;;;;;;;11.70;99.90;;;;;;5100083;28;19904;-72
2021/01/22 13:53:51;;;;;;;;;;;12.00;99.90;;;;;;5099787;28;19904;-72
2021/01/22 13:56:16;;;;;;;;;;;11.90;99.90;;;;;;5098472;28;19908;-72
2021/01/22 13:58:42;;;;;;;;;;;11.70;99.90;;;;;;5099744;28;19931;-72
2021/01/22 14:01:07;;;;;;;;;;;11.60;99.90;;;;;;5099642;28;20017;-72
2021/01/22 14:03:33;;;;;;;;;;;11.60;99.90;;;;;;5099733;28;19957;-72
2021/01/22 14:05:59;;;;;;;;;;;11.70;99.90;;;;;;5098151;28;19911;-72
2021/01/22 14:08:25;;;;;;;;;;;11.50;99.90;;;;;;5099676;28;19950;-72
2021/01/22 14:10:50;;;;;;;;;;;11.50;99.90;;;;;;5099533;28;19904;-72
2021/01/22 14:13:16;;;;;;;;;;;11.60;99.90;;;;;;5099449;28;19904;-72
2021/01/22 14:15:41;;;;;;;;;;;11.90;99.90;;;;;;5099465;28;19958;-72
2021/01/22 14:18:07;;;;;;;;;;;12.40;99.90;;;;;;5099684;28;20340;-72
2021/01/22 14:20:33;;;;;;;;;;;12.60;99.90;;;;;;5099120;28;19928;-72
2021/01/22 14:22:58;;;;;;;;;;;12.60;99.90;;;;;;5099156;28;20379;-72